createdAt,value
2018-04-25T00:01:58.003Z,11.10
2018-04-25T00:04:31.590Z,11.10
2018-04-25T00:07:05.186Z,11.10
2018-04-25T00:09:38.777Z,11.20
2018-04-25T00:12:12.292Z,11.10
2018-04-25T00:14:45.895Z,11.20
2018-04-25T00:17:19.425Z,11.10
2018-04-25T00:19:52.960Z,11.20
2018-04-25T00:22:27.298Z,11.20
2018-04-25T00:25:01.623Z,11.20
2018-04-25T00:27:36.037Z,11.10
2018-04-25T00:30:09.633Z,11.10
2018-04-25T00:32:43.236Z,11.20
2018-04-25T00:35:16.781Z,11.20
2018-04-25T00:37:51.253Z,11.20
2018-04-25T00:40:24.959Z,11.10
2018-04-25T00:42:58.496Z,11.20
2018-04-25T00:45:32.040Z,11.00
2018-04-25T00:48:05.575Z,10.90
2018-04-25T00:50:39.144Z,10.80
2018-04-25T00:53:12.873Z,10.80
2018-04-25T00:55:46.409Z,10.80
2018-04-25T00:58:19.956Z,10.70
2018-04-25T01:00:53.499Z,10.70
2018-04-25T01:03:27.080Z,10.70
2018-04-25T01:06:00.650Z,10.70
2018-04-25T01:08:34.982Z,10.70
2018-04-25T01:11:08.579Z,10.70
2018-04-25T01:13:42.993Z,10.60
2018-04-25T01:16:16.548Z,10.60
2018-04-25T01:18:50.137Z,10.60
2018-04-25T01:21:23.713Z,10.50
2018-04-25T01:23:58.077Z,10.50
2018-04-25T01:26:31.867Z,10.40
2018-04-25T01:29:06.328Z,10.40
2018-04-25T01:31:40.843Z,10.40
2018-04-25T01:47:34.337Z,10.30
2018-04-25T02:03:44.539Z,10.60
2018-04-25T02:06:18.105Z,10.50
2018-04-25T02:08:51.663Z,10.60
2018-04-25T02:11:26.074Z,10.60
2018-04-25T02:13:59.811Z,10.60
2018-04-25T02:16:33.383Z,10.50
2018-04-25T02:19:06.930Z,10.60
2018-04-25T02:21:41.295Z,10.60
2018-04-25T02:24:14.912Z,10.60
2018-04-25T02:26:48.482Z,10.50
2018-04-25T02:29:22.820Z,10.30
2018-04-25T02:31:56.405Z,10.30
2018-04-25T02:34:30.016Z,10.10
2018-04-25T02:37:03.527Z,10.10
2018-04-25T02:39:38.040Z,10.10
2018-04-25T02:42:11.709Z,10.00
2018-04-25T02:44:45.333Z,10.00
2018-04-25T02:47:18.880Z,10.00
2018-04-25T02:49:52.468Z,10.00
2018-04-25T02:52:25.959Z,9.90
2018-04-25T02:55:00.280Z,9.70
2018-04-25T02:57:34.785Z,9.70
2018-04-25T03:00:08.378Z,9.60
2018-04-25T03:02:41.985Z,9.70
2018-04-25T03:05:15.522Z,9.60
2018-04-25T03:07:49.186Z,9.50
2018-04-25T03:10:22.856Z,9.60
2018-04-25T03:12:56.460Z,9.40
2018-04-25T03:15:30.235Z,9.40
2018-04-25T03:18:03.775Z,9.40
2018-04-25T03:20:37.412Z,9.30
2018-04-25T03:23:11.712Z,9.20
2018-04-25T03:25:45.443Z,9.20
2018-04-25T03:28:18.985Z,9.30
2018-04-25T03:30:52.644Z,9.10
2018-04-25T03:33:26.214Z,9.00
2018-04-25T03:35:59.814Z,9.10
2018-04-25T03:38:33.504Z,9.10
2018-04-25T03:41:07.157Z,9.10
2018-04-25T03:43:40.799Z,9.00
2018-04-25T03:46:15.024Z,8.90
2018-04-25T03:48:48.770Z,8.90
2018-04-25T03:51:22.268Z,9.00
2018-04-25T03:53:55.862Z,9.10
2018-04-25T03:56:29.380Z,9.10
2018-04-25T03:59:02.980Z,9.10
2018-04-25T04:01:37.452Z,9.10
2018-04-25T04:04:11.168Z,9.00
2018-04-25T04:06:44.774Z,9.00
2018-04-25T04:09:18.344Z,8.90
2018-04-25T04:11:51.891Z,8.80
2018-04-25T04:14:26.208Z,8.70
2018-04-25T04:16:59.723Z,8.70
2018-04-25T04:19:33.287Z,8.40
2018-04-25T04:22:06.876Z,8.30
2018-04-25T04:24:40.375Z,8.40
2018-04-25T04:27:13.931Z,8.50
2018-04-25T04:29:47.495Z,8.70
2018-04-25T04:32:21.211Z,8.90
2018-04-25T04:34:54.777Z,8.80
2018-04-25T04:37:28.350Z,8.90
2018-04-25T04:40:01.922Z,8.90
2018-04-25T04:42:35.461Z,9.00
2018-04-25T04:45:09.089Z,9.10
2018-04-25T04:47:42.612Z,9.20
2018-04-25T04:50:16.164Z,9.30
2018-04-25T04:52:49.775Z,9.30
2018-04-25T04:55:23.479Z,9.40
2018-04-25T04:57:57.006Z,9.50
2018-04-25T05:00:30.602Z,9.50
2018-04-25T05:03:04.096Z,9.50
2018-04-25T05:05:37.600Z,9.60
2018-04-25T05:08:11.204Z,9.70
2018-04-25T05:10:44.785Z,9.40
2018-04-25T05:13:18.320Z,9.50
2018-04-25T05:15:51.910Z,9.40
2018-04-25T05:18:25.467Z,9.60
2018-04-25T05:20:59.052Z,9.70
2018-04-25T05:23:32.781Z,9.90
2018-04-25T05:26:06.369Z,10.10
2018-04-25T05:28:40.525Z,10.20
2018-04-25T05:31:14.227Z,10.30
2018-04-25T05:33:47.798Z,10.50
2018-04-25T05:36:21.395Z,10.60
2018-04-25T05:38:54.915Z,10.80
2018-04-25T05:41:28.499Z,11.00
2018-04-25T05:44:02.107Z,11.20
2018-04-25T05:46:35.631Z,11.40
2018-04-25T05:49:09.215Z,11.50
2018-04-25T05:51:42.848Z,11.70
2018-04-25T05:54:16.431Z,11.90
2018-04-25T05:56:49.980Z,12.00
2018-04-25T05:59:23.604Z,12.20
2018-04-25T06:01:57.573Z,12.40
2018-04-25T06:04:31.360Z,12.50
2018-04-25T06:07:04.910Z,12.70
2018-04-25T06:09:38.524Z,12.90
2018-04-25T06:12:12.851Z,13.20
2018-04-25T06:14:46.441Z,13.10
2018-04-25T06:17:20.047Z,13.30
2018-04-25T06:19:53.652Z,13.40
2018-04-25T06:22:27.247Z,13.60
2018-04-25T06:25:00.845Z,13.70
2018-04-25T06:27:34.433Z,13.90
2018-04-25T06:30:07.957Z,14.00
2018-04-25T06:32:41.548Z,14.20
2018-04-25T06:35:15.120Z,14.30
2018-04-25T06:37:48.631Z,14.40
2018-04-25T06:40:22.175Z,14.50
2018-04-25T06:42:55.771Z,14.60
2018-04-25T06:45:29.321Z,14.80
2018-04-25T06:48:03.767Z,15.00
2018-04-25T06:50:37.512Z,15.00
2018-04-25T06:53:11.060Z,15.20
2018-04-25T06:55:44.687Z,15.30
2018-04-25T06:58:18.286Z,15.50
2018-04-25T07:00:51.850Z,15.70
2018-04-25T07:03:25.402Z,15.80
2018-04-25T07:05:59.718Z,16.10
2018-04-25T07:08:33.308Z,16.30
2018-04-25T07:11:06.892Z,16.40
2018-04-25T07:13:40.424Z,16.60
2018-04-25T07:16:13.996Z,16.70
2018-04-25T07:18:47.579Z,16.90
2018-04-25T07:21:21.936Z,17.10
2018-04-25T07:23:55.555Z,17.10
2018-04-25T07:26:29.825Z,17.50
2018-04-25T07:29:03.395Z,17.50
2018-04-25T07:31:37.021Z,17.70
2018-04-25T07:34:10.604Z,17.80
2018-04-25T07:36:44.940Z,17.90
2018-04-25T07:39:19.358Z,18.00
2018-04-25T07:41:53.967Z,18.10
2018-04-25T07:44:27.580Z,18.10
2018-04-25T07:47:01.163Z,18.10
2018-04-25T07:49:34.712Z,18.30
2018-04-25T07:52:08.351Z,18.30
2018-04-25T07:54:42.714Z,18.50
2018-04-25T07:57:16.286Z,18.40
2018-04-25T07:59:49.931Z,18.60
2018-04-25T08:02:23.517Z,18.50
2018-04-25T08:04:57.124Z,18.50
2018-04-25T08:07:30.844Z,18.40
2018-04-25T08:10:04.406Z,18.50
2018-04-25T08:12:50.580Z,18.90
2018-04-25T08:15:36.149Z,18.90
2018-04-25T08:18:21.968Z,19.00
2018-04-25T08:34:27.203Z,19.80
2018-04-25T08:37:00.933Z,19.80
2018-04-25T08:39:34.482Z,20.00
2018-04-25T08:42:07.993Z,20.20
2018-04-25T08:44:41.591Z,20.40
2018-04-25T08:47:15.101Z,20.40
2018-04-25T08:49:48.621Z,20.50
2018-04-25T08:52:22.099Z,20.50
2018-04-25T08:54:55.684Z,20.50
2018-04-25T08:57:29.315Z,20.60
2018-04-25T09:00:02.903Z,20.80
2018-04-25T09:02:36.645Z,21.00
2018-04-25T09:05:10.189Z,20.90
2018-04-25T09:07:44.527Z,21.00
2018-04-25T09:10:18.116Z,20.90
2018-04-25T09:12:51.668Z,20.90
2018-04-25T09:15:25.316Z,20.70
2018-04-25T09:17:58.830Z,20.80
2018-04-25T09:20:32.410Z,21.00
2018-04-25T09:23:05.935Z,21.30
2018-04-25T09:25:39.692Z,21.20
2018-04-25T09:28:13.298Z,21.50
2018-04-25T09:30:47.021Z,21.50
2018-04-25T09:33:20.624Z,21.50
2018-04-25T09:35:54.141Z,21.60
2018-04-25T09:38:27.666Z,21.70
2018-04-25T09:41:01.343Z,21.50
2018-04-25T09:43:34.916Z,22.00
2018-04-25T09:46:08.459Z,21.70
2018-04-25T09:48:42.039Z,22.00
2018-04-25T09:51:15.616Z,22.10
2018-04-25T09:53:49.192Z,22.10
2018-04-25T09:56:22.847Z,22.00
2018-04-25T09:58:56.424Z,22.20
2018-04-25T10:01:30.880Z,22.40
2018-04-25T10:04:04.615Z,22.70
2018-04-25T10:06:38.144Z,22.80
2018-04-25T10:09:11.683Z,22.80
2018-04-25T10:11:45.971Z,22.70
2018-04-25T10:14:20.484Z,22.80
2018-04-25T10:16:53.996Z,22.80
2018-04-25T10:19:27.583Z,22.80
2018-04-25T10:22:01.180Z,23.00
2018-04-25T10:24:34.821Z,23.10
2018-04-25T10:27:08.526Z,23.20
2018-04-25T10:29:42.091Z,23.20
2018-04-25T10:32:15.708Z,23.10
2018-04-25T10:34:49.279Z,23.20
2018-04-25T10:37:22.839Z,23.10
2018-04-25T10:39:57.308Z,22.90
2018-04-25T10:42:31.097Z,23.00
2018-04-25T10:45:04.821Z,23.00
2018-04-25T10:47:38.358Z,22.80
2018-04-25T10:50:11.907Z,23.10
2018-04-25T10:52:45.460Z,23.10
2018-04-25T10:55:19.089Z,23.30
2018-04-25T10:57:52.621Z,23.30
2018-04-25T11:00:26.367Z,23.20
2018-04-25T11:02:59.940Z,23.20
2018-04-25T11:05:33.672Z,22.90
2018-04-25T11:08:07.363Z,23.10
2018-04-25T11:10:41.036Z,23.50
2018-04-25T11:13:15.368Z,23.70
2018-04-25T11:15:49.724Z,23.70
2018-04-25T11:18:23.417Z,23.70
2018-04-25T11:20:57.028Z,23.80
2018-04-25T11:23:30.719Z,23.80
2018-04-25T11:26:04.308Z,23.90
2018-04-25T11:28:39.191Z,23.80
2018-04-25T11:31:13.628Z,23.70
2018-04-25T11:33:48.077Z,23.70
2018-04-25T11:36:21.877Z,23.80
2018-04-25T11:38:55.373Z,23.90
2018-04-25T11:41:29.199Z,24.00
2018-04-25T11:44:02.896Z,24.00
2018-04-25T11:46:38.082Z,23.70
2018-04-25T11:49:12.516Z,23.70
2018-04-25T11:51:46.119Z,23.70
2018-04-25T11:54:19.720Z,23.90
2018-04-25T11:56:54.148Z,24.00
2018-04-25T11:59:27.699Z,24.00
2018-04-25T12:02:01.352Z,24.20
2018-04-25T12:04:35.667Z,24.20
2018-04-25T12:07:09.232Z,24.20
2018-04-25T12:09:43.693Z,24.30
2018-04-25T12:12:17.295Z,24.30
2018-04-25T12:14:51.702Z,23.90
2018-04-25T12:17:25.306Z,23.90
2018-04-25T12:19:58.893Z,23.90
2018-04-25T12:22:32.602Z,23.80
2018-04-25T12:25:06.356Z,23.80
2018-04-25T12:27:39.920Z,23.90
2018-04-25T12:30:13.509Z,23.90
2018-04-25T12:32:47.096Z,23.90
2018-04-25T12:35:20.636Z,23.80
2018-04-25T12:37:55.131Z,24.10
2018-04-25T12:40:28.850Z,24.00
2018-04-25T12:43:03.268Z,24.10
2018-04-25T12:45:36.786Z,24.10
2018-04-25T12:48:11.184Z,24.10
2018-04-25T12:50:45.692Z,24.00
2018-04-25T12:53:19.296Z,24.00
2018-04-25T12:55:53.622Z,23.80
2018-04-25T12:58:27.295Z,23.70
2018-04-25T13:01:01.049Z,23.50
2018-04-25T13:03:34.646Z,23.60
2018-04-25T13:06:08.932Z,23.50
2018-04-25T13:08:43.268Z,23.60
2018-04-25T13:11:16.832Z,23.50
2018-04-25T13:13:50.562Z,24.00
2018-04-25T13:16:24.968Z,24.10
2018-04-25T13:18:58.687Z,24.10
2018-04-25T13:21:32.281Z,24.00
2018-04-25T13:24:05.896Z,24.10
2018-04-25T13:26:39.480Z,24.00
2018-04-25T13:29:13.071Z,24.10
2018-04-25T13:31:46.715Z,24.10
2018-04-25T13:34:20.289Z,24.00
2018-04-25T13:36:53.779Z,23.80
2018-04-25T13:39:27.315Z,23.70
2018-04-25T13:42:01.009Z,24.10
2018-04-25T13:44:35.297Z,24.10
2018-04-25T13:47:08.964Z,24.10
2018-04-25T13:49:42.535Z,23.90
2018-04-25T13:52:16.224Z,23.90
2018-04-25T13:54:49.940Z,23.90
2018-04-25T13:57:23.539Z,24.10
2018-04-25T13:59:58.025Z,24.10
2018-04-25T14:02:31.776Z,24.10
2018-04-25T14:05:05.347Z,24.00
2018-04-25T14:07:38.937Z,23.90
2018-04-25T14:10:12.500Z,23.90
2018-04-25T14:12:46.027Z,24.00
2018-04-25T14:15:20.355Z,24.00
2018-04-25T14:17:53.955Z,24.00
2018-04-25T14:20:27.707Z,24.00
2018-04-25T14:23:01.296Z,23.90
2018-04-25T14:25:35.777Z,23.70
2018-04-25T14:28:09.387Z,23.70
2018-04-25T14:30:42.989Z,23.80
2018-04-25T14:33:16.663Z,23.90
2018-04-25T14:35:50.277Z,23.70
2018-04-25T14:38:23.790Z,23.80
2018-04-25T14:40:57.610Z,24.10
2018-04-25T14:43:31.296Z,24.10
2018-04-25T14:46:04.995Z,24.30
2018-04-25T14:48:38.489Z,24.30
2018-04-25T14:51:12.145Z,24.00
2018-04-25T14:53:45.606Z,23.90
2018-04-25T14:56:19.384Z,24.10
2018-04-25T14:58:53.041Z,24.10
2018-04-25T15:01:26.745Z,24.00
2018-04-25T15:04:00.391Z,23.90
2018-04-25T15:06:34.250Z,23.80
2018-04-25T15:09:07.799Z,23.50
2018-04-25T15:11:41.420Z,23.50
2018-04-25T15:14:15.844Z,23.30
2018-04-25T15:16:49.434Z,23.20
2018-04-25T15:19:23.024Z,23.30
2018-04-25T15:21:56.652Z,23.20
2018-04-25T15:24:30.234Z,23.30
2018-04-25T15:27:04.511Z,23.60
2018-04-25T15:29:38.077Z,23.60
2018-04-25T15:32:12.508Z,23.40
2018-04-25T15:34:46.163Z,23.30
2018-04-25T15:37:19.768Z,23.50
2018-04-25T15:39:54.097Z,23.60
2018-04-25T15:42:27.612Z,23.40
2018-04-25T15:45:01.293Z,23.30
2018-04-25T15:47:34.872Z,23.30
2018-04-25T15:50:09.306Z,23.50
2018-04-25T15:52:43.017Z,23.40
2018-04-25T15:55:16.763Z,23.30
2018-04-25T15:57:50.399Z,23.10
2018-04-25T16:00:24.025Z,23.20
2018-04-25T16:02:57.532Z,23.20
2018-04-25T16:05:31.956Z,23.10
2018-04-25T16:08:05.667Z,23.10
2018-04-25T16:10:39.287Z,23.40
2018-04-25T16:13:13.668Z,23.30
2018-04-25T16:15:48.092Z,23.30
2018-04-25T16:18:21.759Z,23.30
2018-04-25T16:20:55.383Z,23.60
2018-04-25T16:23:28.915Z,23.80
2018-04-25T16:26:02.500Z,23.70
2018-04-25T16:28:36.162Z,23.50
2018-04-25T16:31:10.705Z,23.20
2018-04-25T16:33:45.033Z,22.50
2018-04-25T16:36:18.609Z,22.40
2018-04-25T16:38:52.331Z,22.50
2018-04-25T16:41:25.967Z,22.60
2018-04-25T16:43:59.533Z,22.20
2018-04-25T16:46:33.245Z,22.00
2018-04-25T16:49:06.773Z,22.10
2018-04-25T16:51:41.159Z,22.20
2018-04-25T16:54:14.848Z,22.20
2018-04-25T16:56:48.369Z,22.20
2018-04-25T16:59:22.687Z,21.70
2018-04-25T17:01:56.353Z,21.70
2018-04-25T17:04:29.912Z,21.50
2018-04-25T17:07:03.466Z,21.40
2018-04-25T17:09:37.031Z,21.40
2018-04-25T17:12:10.672Z,21.30
2018-04-25T17:14:44.174Z,21.30
2018-04-25T17:17:17.748Z,21.30
2018-04-25T17:19:51.391Z,21.40
2018-04-25T17:22:25.675Z,21.20
2018-04-25T17:24:59.548Z,21.10
2018-04-25T17:27:33.071Z,20.80
2018-04-25T17:30:06.824Z,20.90
2018-04-25T17:32:40.306Z,20.80
2018-04-25T17:35:14.616Z,20.90
2018-04-25T17:37:48.212Z,20.80
2018-04-25T17:40:21.808Z,20.60
2018-04-25T17:42:55.387Z,20.90
2018-04-25T17:45:28.834Z,20.60
2018-04-25T17:48:03.323Z,20.40
2018-04-25T17:50:37.100Z,20.40
2018-04-25T17:53:10.745Z,20.20
2018-04-25T17:55:44.375Z,20.30
2018-04-25T17:58:17.932Z,20.20
2018-04-25T18:00:51.526Z,20.00
2018-04-25T18:03:25.056Z,19.80
2018-04-25T18:05:58.590Z,19.70
2018-04-25T18:08:32.123Z,19.60
2018-04-25T18:11:06.473Z,19.60
2018-04-25T18:13:40.033Z,19.60
2018-04-25T18:16:13.661Z,19.50
2018-04-25T18:18:47.261Z,19.30
2018-04-25T18:21:21.595Z,19.40
2018-04-25T18:23:55.306Z,19.40
2018-04-25T18:26:28.869Z,19.40
2018-04-25T18:29:02.416Z,19.50
2018-04-25T18:31:36.110Z,19.60
2018-04-25T18:34:09.697Z,19.30
2018-04-25T18:36:43.332Z,19.20
2018-04-25T18:39:17.599Z,19.00
2018-04-25T18:41:51.270Z,19.00
2018-04-25T18:44:24.890Z,19.00
2018-04-25T18:46:59.223Z,18.90
2018-04-25T18:49:32.909Z,19.00
2018-04-25T18:52:06.419Z,19.00
2018-04-25T18:54:40.004Z,18.90
2018-04-25T18:57:13.598Z,18.90
2018-04-25T18:59:47.243Z,18.90
2018-04-25T19:02:20.838Z,18.80
2018-04-25T19:04:54.398Z,18.70
2018-04-25T19:07:28.026Z,18.60
2018-04-25T19:10:01.735Z,18.70
2018-04-25T19:12:35.305Z,18.90
2018-04-25T19:15:09.018Z,18.50
2018-04-25T19:17:42.562Z,18.40
2018-04-25T19:20:16.330Z,18.20
2018-04-25T19:22:49.940Z,18.00
2018-04-25T19:25:24.261Z,17.80
2018-04-25T19:27:57.962Z,17.80
2018-04-25T19:30:31.556Z,17.80
2018-04-25T19:33:05.884Z,17.60
2018-04-25T19:35:40.195Z,17.20
2018-04-25T19:38:14.005Z,17.20
2018-04-25T19:40:47.538Z,16.80
2018-04-25T19:43:21.106Z,16.40
2018-04-25T19:45:54.692Z,16.10
2018-04-25T19:48:28.293Z,15.80
2018-04-25T19:51:02.677Z,15.80
2018-04-25T19:53:36.343Z,15.70
2018-04-25T19:56:09.919Z,15.70
2018-04-25T19:58:43.508Z,15.90
2018-04-25T20:01:17.108Z,16.30
2018-04-25T20:03:50.643Z,16.40
2018-04-25T20:06:24.232Z,16.30
2018-04-25T20:08:57.837Z,16.40
2018-04-25T20:11:31.434Z,16.60
2018-04-25T20:14:05.098Z,16.70
2018-04-25T20:16:38.633Z,16.80
2018-04-25T20:19:13.040Z,16.80
2018-04-25T20:21:46.624Z,16.80
2018-04-25T20:24:20.220Z,16.90
2018-04-25T20:26:53.745Z,17.00
2018-04-25T20:29:27.374Z,17.10
2018-04-25T20:32:00.943Z,17.10
2018-04-25T20:34:34.575Z,17.00
2018-04-25T20:37:08.743Z,17.00
2018-04-25T20:39:43.353Z,17.00
2018-04-25T20:42:17.176Z,17.00
2018-04-25T20:44:51.613Z,17.00
2018-04-25T20:47:30.375Z,16.30
2018-04-25T20:50:03.987Z,16.30
2018-04-25T20:52:37.549Z,16.40
2018-04-25T20:55:11.071Z,16.50
2018-04-25T20:57:45.352Z,15.90
2018-04-25T21:00:18.930Z,15.90
2018-04-25T21:02:52.438Z,15.50
2018-04-25T21:05:26.028Z,15.30
2018-04-25T21:07:59.655Z,15.40
2018-04-25T21:10:33.229Z,15.10
2018-04-25T21:13:06.841Z,15.20
2018-04-25T21:15:40.459Z,15.10
2018-04-25T21:18:13.991Z,14.90
2018-04-25T21:20:47.553Z,14.70
2018-04-25T21:23:21.484Z,14.90
2018-04-25T21:25:55.100Z,15.20
2018-04-25T21:28:28.685Z,15.00
2018-04-25T21:31:02.267Z,15.20
2018-04-25T21:33:35.868Z,15.30
2018-04-25T21:36:09.365Z,15.40
2018-04-25T21:38:43.035Z,15.60
2018-04-25T21:41:17.442Z,15.90
2018-04-25T21:43:51.907Z,16.00
2018-04-25T21:46:25.431Z,16.00
2018-04-25T21:48:59.816Z,16.10
2018-04-25T21:51:34.233Z,16.10
2018-04-25T21:54:07.959Z,16.00
2018-04-25T21:56:41.657Z,15.90
2018-04-25T21:59:15.239Z,15.90
2018-04-25T22:01:48.851Z,15.90
2018-04-25T22:04:22.373Z,15.90
2018-04-25T22:06:55.976Z,15.90
2018-04-25T22:09:29.553Z,15.90
2018-04-25T22:12:03.083Z,15.80
2018-04-25T22:14:37.464Z,15.80
2018-04-25T22:17:11.212Z,15.70
2018-04-25T22:19:44.892Z,15.70
2018-04-25T22:22:19.373Z,15.60
2018-04-25T22:24:53.976Z,15.50
2018-04-25T22:27:27.607Z,15.50
2018-04-25T22:30:01.297Z,15.60
2018-04-25T22:32:34.938Z,15.70
2018-04-25T22:35:08.505Z,15.70
2018-04-25T22:37:42.127Z,15.70
2018-04-25T22:40:15.703Z,15.80
2018-04-25T22:42:49.261Z,15.90
2018-04-25T22:45:23.201Z,15.90
2018-04-25T22:47:56.880Z,15.80
2018-04-25T22:50:30.561Z,15.40
2018-04-25T22:53:04.838Z,15.10
2018-04-25T22:55:39.167Z,14.90
2018-04-25T22:58:12.854Z,14.90
2018-04-25T23:00:46.449Z,14.60
2018-04-25T23:03:20.187Z,14.80
2018-04-25T23:05:54.508Z,15.10
2018-04-25T23:08:28.228Z,15.00
2018-04-25T23:11:01.913Z,15.10
2018-04-25T23:13:35.732Z,15.20
2018-04-25T23:16:09.287Z,15.30
2018-04-25T23:18:42.890Z,15.40
2018-04-25T23:21:16.414Z,15.40
2018-04-25T23:23:50.705Z,15.10
2018-04-25T23:26:24.298Z,15.10
2018-04-25T23:28:57.837Z,15.10
2018-04-25T23:31:31.387Z,15.20
2018-04-25T23:34:04.931Z,15.20
2018-04-25T23:36:38.506Z,15.20
2018-04-25T23:39:12.069Z,15.20
2018-04-25T23:41:45.595Z,15.20
2018-04-25T23:44:19.203Z,15.20
2018-04-25T23:46:52.795Z,15.30
2018-04-25T23:49:26.332Z,15.30
2018-04-25T23:52:00.675Z,15.00
2018-04-25T23:54:34.447Z,14.90
2018-04-25T23:57:07.940Z,15.00
2018-04-25T23:59:41.426Z,15.20
